Map

Track Data

SID SEASON NUMBER BASIN SUBBASIN NAME ISO_TIME NATURE LAT LON WMO_WIND WMO_PRES WMO_AGENCY TRACK_TYPE DIST2LAND LANDFALL IFLAG USA_AGENCY USA_ATCF_ID USA_LAT USA_LON USA_RECORD USA_STATUS USA_WIND USA_PRES USA_SSHS USA_R34_NE USA_R34_SE USA_R34_SW USA_R34_NW USA_R50_NE USA_R50_SE USA_R50_SW USA_R50_NW USA_R64_NE USA_R64_SE USA_R64_SW USA_R64_NW USA_POCI USA_ROCI USA_RMW USA_EYE TOKYO_LAT TOKYO_LON TOKYO_GRADE TOKYO_WIND TOKYO_PRES TOKYO_R50_DIR TOKYO_R50_LONG TOKYO_R50_SHORT TOKYO_R30_DIR TOKYO_R30_LONG TOKYO_R30_SHORT TOKYO_LAND CMA_LAT CMA_LON CMA_CAT CMA_WIND CMA_PRES HKO_LAT HKO_LON HKO_CAT HKO_WIND HKO_PRES NEWDELHI_LAT NEWDELHI_LON NEWDELHI_GRADE NEWDELHI_WIND NEWDELHI_PRES NEWDELHI_CI NEWDELHI_DP NEWDELHI_POCI REUNION_LAT REUNION_LON REUNION_TYPE REUNION_WIND REUNION_PRES REUNION_TNUM REUNION_CI REUNION_RMW REUNION_R34_NE REUNION_R34_SE REUNION_R34_SW REUNION_R34_NW REUNION_R50_NE REUNION_R50_SE REUNION_R50_SW REUNION_R50_NW REUNION_R64_NE REUNION_R64_SE REUNION_R64_SW REUNION_R64_NW BOM_LAT BOM_LON BOM_TYPE BOM_WIND BOM_PRES BOM_TNUM BOM_CI BOM_RMW BOM_R34_NE BOM_R34_SE BOM_R34_SW BOM_R34_NW BOM_R50_NE BOM_R50_SE BOM_R50_SW BOM_R50_NW BOM_R64_NE BOM_R64_SE BOM_R64_SW BOM_R64_NW BOM_ROCI BOM_POCI BOM_EYE BOM_POS_METHOD BOM_PRES_METHOD NADI_LAT NADI_LON NADI_CAT NADI_WIND NADI_PRES WELLINGTON_LAT WELLINGTON_LON WELLINGTON_WIND WELLINGTON_PRES DS824_LAT DS824_LON DS824_STAGE DS824_WIND DS824_PRES TD9636_LAT TD9636_LON TD9636_STAGE TD9636_WIND TD9636_PRES TD9635_LAT TD9635_LON TD9635_WIND TD9635_PRES TD9635_ROCI NEUMANN_LAT NEUMANN_LON NEUMANN_CLASS NEUMANN_WIND NEUMANN_PRES MLC_LAT MLC_LON MLC_CLASS MLC_WIND MLC_PRES USA_GUST BOM_GUST BOM_GUST_PER REUNION_GUST REUNION_GUST_PER USA_SEAHGT USA_SEARAD_NE USA_SEARAD_SE USA_SEARAD_SW USA_SEARAD_NW STORM_SPEED STORM_DIR
1969302N38291 1969 108 NA NA NOT_NAMED 1969-10-28 12:00:00 ET 38.0000 -69.0000 20 hurdat_atl main 415 415 O_____________ hurdat_atl AL281969 38.0000 -69.0000 EX 20 -4 4 94
1969302N38291 1969 108 NA NA NOT_NAMED 1969-10-28 15:00:00 ET 37.9879 -68.7753 main 421 421 P_____________ AL281969 37.9879 -68.7753 EX 22 -4 4 90
1969302N38291 1969 108 NA NA NOT_NAMED 1969-10-28 18:00:00 ET 38.0000 -68.5000 25 hurdat_atl main 431 428 O_____________ hurdat_atl AL281969 38.0000 -68.5000 EX 25 -4 5 82
1969302N38291 1969 108 NA NA NOT_NAMED 1969-10-28 21:00:00 ET 38.0614 -68.1115 main 431 431 P_____________ AL281969 38.0614 -68.1115 EX 27 -4 8 76
1969302N38291 1969 108 NA NA NOT_NAMED 1969-10-29 00:00:00 ET 38.2000 -67.5000 30 hurdat_atl main 443 442 O_____________ hurdat_atl AL281969 38.2000 -67.5000 EX 30 -4 12 73
1969302N38291 1969 108 NA NA NOT_NAMED 1969-10-29 03:00:00 ET 38.4035 -66.6483 main 466 466 P_____________ AL281969 38.4035 -66.6483 EX 32 -4 16 72
1969302N38291 1969 108 NA NA NOT_NAMED 1969-10-29 06:00:00 TS 38.7000 -65.5000 35 hurdat_atl main 506 506 O_____________ hurdat_atl AL281969 38.7000 -65.5000 TS 35 0 22 73
1969302N38291 1969 108 NA NA NOT_NAMED 1969-10-29 09:00:00 TS 39.0283 -63.9993 main 512 498 P_____________ AL281969 39.0283 -63.9993 TS 37 0 25 71
1969302N38291 1969 108 NA NA NOT_NAMED 1969-10-29 12:00:00 ET 39.5000 -62.5000 40 hurdat_atl main 501 486 O_____________ hurdat_atl AL281969 39.5000 -62.5000 EX 40 -4 23 60
1969302N38291 1969 108 NA NA NOT_NAMED 1969-10-29 15:00:00 ET 40.1951 -61.3946 main 488 451 P_____________ AL281969 40.1951 -61.3946 EX 42 -4 21 46
1969302N38291 1969 108 NA NA NOT_NAMED 1969-10-29 18:00:00 ET 41.0000 -60.5000 45 hurdat_atl main 451 394 O_____________ hurdat_atl AL281969 41.0000 -60.5000 EX 45 -4 21 39
1969302N38291 1969 108 NA NA NOT_NAMED 1969-10-29 21:00:00 ET 41.8390 -59.6558 main 394 347 P_____________ AL281969 41.8390 -59.6558 EX 50 -4 19 38
1969302N38291 1969 108 NA NA NOT_NAMED 1969-10-30 00:00:00 ET 42.5000 -58.9000 55 hurdat_atl main 347 341 O_____________ hurdat_atl AL281969 42.5000 -58.9000 EX 55 -4 15 49
1969302N38291 1969 108 NA NA NOT_NAMED 1969-10-30 03:00:00 ET 42.7999 -58.1380 main 358 358 P_____________ AL281969 42.7999 -58.1380 EX 57 -4 11 74
1969302N38291 1969 108 NA NA NOT_NAMED 1969-10-30 06:00:00 ET 42.8000 -57.5000 60 hurdat_atl main 387 387 O_____________ hurdat_atl AL281969 42.8000 -57.5000 EX 60 -4 8 102
1969302N38291 1969 108 NA NA NOT_NAMED 1969-10-30 09:00:00 ET 42.6318 -57.0469 main 429 429 P_____________ AL281969 42.6318 -57.0469 EX 60 -4 8 130
1969302N38291 1969 108 NA NA NOT_NAMED 1969-10-30 12:00:00 ET 42.3000 -56.7000 60 hurdat_atl main 470 470 O_____________ hurdat_atl AL281969 42.3000 -56.7000 EX 60 -4 9 144
1969302N38291 1969 108 NA NA NOT_NAMED 1969-10-30 15:00:00 ET 41.9296 -56.3657 main 521 521 P_____________ AL281969 41.9296 -56.3657 EX 60 -4 10 147
1969302N38291 1969 108 NA NA NOT_NAMED 1969-10-30 18:00:00 ET 41.5000 -56.0000 60 hurdat_atl main 576 576 O_____________ hurdat_atl AL281969 41.5000 -56.0000 EX 60 -4 11 145
1969302N38291 1969 108 NA NA NOT_NAMED 1969-10-30 21:00:00 ET 41.0350 -55.5221 main 640 638 P_____________ AL281969 41.0350 -55.5221 EX 60 -4 12 140
1969302N38291 1969 108 NA NA NOT_NAMED 1969-10-31 00:00:00 ET 40.6000 -55.0000 60 hurdat_atl main 676 675 O_____________ hurdat_atl AL281969 40.6000 -55.0000 EX 60 -4 11 135
1969302N38291 1969 108 NA NA NOT_NAMED 1969-10-31 03:00:00 ET 40.2624 -54.4931 main 704 704 P_____________ AL281969 40.2624 -54.4931 EX 60 -4 10 128
1969302N38291 1969 108 NA NA NOT_NAMED 1969-10-31 06:00:00 ET 40.0000 -54.0000 60 hurdat_atl main 734 734 O_____________ hurdat_atl AL281969 40.0000 -54.0000 EX 60 -4 9 123
1969302N38291 1969 108 NA NA NOT_NAMED 1969-10-31 09:00:00 ET 39.7848 -53.5356 main 756 756 P_____________ AL281969 39.7848 -53.5356 EX 60 -4 8 120
1969302N38291 1969 108 NA NA NOT_NAMED 1969-10-31 12:00:00 ET 39.6000 -53.1000 60 988 hurdat_atl main 778 778 O_____________ hurdat_atl AL281969 39.6000 -53.1000 EX 60 988 -4 8 120
1969302N38291 1969 108 NA NA NOT_NAMED 1969-10-31 15:00:00 ET 39.4073 -52.6929 main 801 801 P_____________ AL281969 39.4073 -52.6929 EX 62 -4 7 123
1969302N38291 1969 108 NA NA NOT_NAMED 1969-10-31 18:00:00 ET 39.2000 -52.3000 65 hurdat_atl main 826 826 O_____________ hurdat_atl AL281969 39.2000 -52.3000 EX 65 -4 8 126
1969302N38291 1969 108 NA NA NOT_NAMED 1969-10-31 21:00:00 ET 38.9574 -51.8926 main 851 851 P_____________ AL281969 38.9574 -51.8926 EX 65 -4 8 129
1969302N38291 1969 108 NA NA NOT_NAMED 1969-11-01 00:00:00 ET 38.7000 -51.5000 65 hurdat_atl main 889 889 O_____________ hurdat_atl AL281969 38.7000 -51.5000 EX 65 -4 8 130
1969302N38291 1969 108 NA NA NOT_NAMED 1969-11-01 03:00:00 ET 38.4797 -51.1509 main 915 915 P_____________ AL281969 38.4797 -51.1509 EX 65 -4 7 132
1969302N38291 1969 108 NA NA NOT_NAMED 1969-11-01 06:00:00 ET 38.2000 -50.8000 65 hurdat_atl main 954 954 O_____________ hurdat_atl AL281969 38.2000 -50.8000 EX 65 -4 9 140
1969302N38291 1969 108 NA NA NOT_NAMED 1969-11-01 09:00:00 ET 37.7949 -50.4076 main 1005 1005 P_____________ AL281969 37.7949 -50.4076 EX 62 -4 11 145
1969302N38291 1969 108 NA NA NOT_NAMED 1969-11-01 12:00:00 ET 37.3000 -50.0000 60 hurdat_atl main 1067 1067 O_____________ hurdat_atl AL281969 37.3000 -50.0000 EX 60 -4 12 147
1969302N38291 1969 108 NA NA NOT_NAMED 1969-11-01 15:00:00 ET 36.7874 -49.5930 main 1129 1129 P_____________ AL281969 36.7874 -49.5930 EX 60 -4 13 150
1969302N38291 1969 108 NA NA NOT_NAMED 1969-11-01 18:00:00 ET 36.2000 -49.2000 60 hurdat_atl main 1203 1203 O_____________ hurdat_atl AL281969 36.2000 -49.2000 EX 60 -4 14 154
1969302N38291 1969 108 NA NA NOT_NAMED 1969-11-01 21:00:00 ET 35.5299 -48.8277 main 1288 1288 P_____________ AL281969 35.5299 -48.8277 EX 57 -4 15 158
1969302N38291 1969 108 NA NA NOT_NAMED 1969-11-02 00:00:00 SS 34.8000 -48.5000 55 hurdat_atl main 1370 1370 O_____________ hurdat_atl AL281969 34.8000 -48.5000 SS 55 -2 16 162
1969302N38291 1969 108 NA NA NOT_NAMED 1969-11-02 03:00:00 SS 34.0573 -48.2358 main 1452 1452 P_____________ AL281969 34.0573 -48.2358 SS 52 -2 16 165
1969302N38291 1969 108 NA NA NOT_NAMED 1969-11-02 06:00:00 SS 33.3000 -48.0000 50 hurdat_atl main 1543 1543 O_____________ hurdat_atl AL281969 33.3000 -48.0000 SS 50 -2 16 165
1969302N38291 1969 108 NA NA NOT_NAMED 1969-11-02 09:00:00 SS 32.5349 -47.7656 main 1634 1634 P_____________ AL281969 32.5349 -47.7656 SS 47 -2 16 164
1969302N38291 1969 108 NA NA NOT_NAMED 1969-11-02 12:00:00 SS 31.8000 -47.5000 45 hurdat_atl main 1717 1717 O_____________ hurdat_atl AL281969 31.8000 -47.5000 SS 45 -2 15 161
1969302N38291 1969 108 NA NA NOT_NAMED 1969-11-02 15:00:00 SS 31.1274 -47.1805 main 1800 1800 P_____________ AL281969 31.1274 -47.1805 SS 45 -2 14 155
1969302N38291 1969 108 NA NA NOT_NAMED 1969-11-02 18:00:00 SS 30.5000 -46.8000 45 hurdat_atl main 1874 1874 O_____________ hurdat_atl AL281969 30.5000 -46.8000 SS 45 -2 14 151
1969302N38291 1969 108 NA NA NOT_NAMED 1969-11-02 21:00:00 SS 29.8774 -46.3728 main 1949 1949 P_____________ AL281969 29.8774 -46.3728 SS 45 -2 14 147
1969302N38291 1969 108 NA NA NOT_NAMED 1969-11-03 00:00:00 TS 29.3000 -45.9000 45 995 hurdat_atl main 2027 2027 O_____________ hurdat_atl AL281969 29.3000 -45.9000 TS 45 995 0 14 143
1969302N38291 1969 108 NA NA NOT_NAMED 1969-11-03 03:00:00 TS 28.7698 -45.4155 main 2094 2094 P_____________ AL281969 28.7698 -45.4155 TS 45 994 0 13 139
1969302N38291 1969 108 NA NA NOT_NAMED 1969-11-03 06:00:00 TS 28.3000 -44.9000 45 hurdat_atl main 2162 2162 I_____________ hurdat_atl AL281969 28.3000 -44.9000 TS 45 993 0 13 135
1969302N38291 1969 108 NA NA NOT_NAMED 1969-11-03 09:00:00 TS 27.8621 -44.3804 main 2219 2219 P_____________ AL281969 27.8621 -44.3804 TS 47 992 0 13 129
1969302N38291 1969 108 NA NA NOT_NAMED 1969-11-03 12:00:00 TS 27.5000 -43.8000 50 992 hurdat_atl main 2280 2280 O_____________ hurdat_atl AL281969 27.5000 -43.8000 TS 50 992 0 13 121
1969302N38291 1969 108 NA NA NOT_NAMED 1969-11-03 15:00:00 TS 27.1975 -43.1225 main 2334 2334 P_____________ AL281969 27.1975 -43.1225 TS 52 0 13 112
1969302N38291 1969 108 NA NA NOT_NAMED 1969-11-03 18:00:00 TS 27.0000 -42.4000 55 hurdat_atl main 2379 2379 O_____________ hurdat_atl AL281969 27.0000 -42.4000 TS 55 0 13 103
1969302N38291 1969 108 NA NA NOT_NAMED 1969-11-03 21:00:00 TS 26.8974 -41.6852 main 2414 2383 P_____________ AL281969 26.8974 -41.6852 TS 57 0 13 95
1969302N38291 1969 108 NA NA NOT_NAMED 1969-11-04 00:00:00 TS 26.9000 -41.0000 60 hurdat_atl main 2383 2324 O_____________ hurdat_atl AL281969 26.9000 -41.0000 TS 60 0 12 88
1969302N38291 1969 108 NA NA NOT_NAMED 1969-11-04 03:00:00 TS 26.9397 -40.3698 main 2324 2262 P_____________ AL281969 26.9397 -40.3698 TS 60 0 11 79
1969302N38291 1969 108 NA NA NOT_NAMED 1969-11-04 06:00:00 TS 27.1000 -39.8000 60 hurdat_atl main 2262 2208 O_____________ hurdat_atl AL281969 27.1000 -39.8000 TS 60 0 11 66
1969302N38291 1969 108 NA NA NOT_NAMED 1969-11-04 09:00:00 TS 27.3747 -39.2846 main 2208 2154 P_____________ AL281969 27.3747 -39.2846 TS 62 0 11 52
1969302N38291 1969 108 NA NA NOT_NAMED 1969-11-04 12:00:00 TS 27.8000 -38.8000 65 hurdat_atl main 2154 2099 O_____________ hurdat_atl AL281969 27.8000 -38.8000 HU 65 1 13 42
1969302N38291 1969 108 NA NA NOT_NAMED 1969-11-04 15:00:00 TS 28.3624 -38.2926 main 2098 2045 P_____________ AL281969 28.3624 -38.2926 HU 65 1 15 36
1969302N38291 1969 108 NA NA NOT_NAMED 1969-11-04 18:00:00 TS 29.0000 -37.8000 65 hurdat_atl main 2045 2004 O_____________ hurdat_atl AL281969 29.0000 -37.8000 HU 65 1 15 34
1969302N38291 1969 108 NA NA NOT_NAMED 1969-11-04 21:00:00 TS 29.5998 -37.3418 main 1994 1956 P_____________ AL281969 29.5998 -37.3418 HU 67 1 14 33
1969302N38291 1969 108 NA NA NOT_NAMED 1969-11-05 00:00:00 TS 30.2000 -36.9000 70 hurdat_atl main 1956 1920 O_____________ hurdat_atl AL281969 30.2000 -36.9000 HU 70 1 14 32
1969302N38291 1969 108 NA NA NOT_NAMED 1969-11-05 03:00:00 TS 30.8073 -36.4569 main 1920 1878 P_____________ AL281969 30.8073 -36.4569 HU 72 1 14 33
1969302N38291 1969 108 NA NA NOT_NAMED 1969-11-05 06:00:00 TS 31.4000 -36.0000 75 hurdat_atl main 1878 1838 O_____________ hurdat_atl AL281969 31.4000 -36.0000 HU 75 1 14 36
1969302N38291 1969 108 NA NA NOT_NAMED 1969-11-05 09:00:00 TS 31.9424 -35.5067 main 1838 1802 P_____________ AL281969 31.9424 -35.5067 HU 77 1 14 38
1969302N38291 1969 108 NA NA NOT_NAMED 1969-11-05 12:00:00 TS 32.5000 -35.0000 80 hurdat_atl main 1802 1769 O_____________ hurdat_atl AL281969 32.5000 -35.0000 HU 80 1 15 35
1969302N38291 1969 108 NA NA NOT_NAMED 1969-11-05 15:00:00 TS 33.1420 -34.5216 main 1769 1744 P_____________ AL281969 33.1420 -34.5216 HU 80 1 15 33
1969302N38291 1969 108 NA NA NOT_NAMED 1969-11-05 18:00:00 TS 33.8000 -34.0000 80 hurdat_atl main 1744 1711 O_____________ hurdat_atl AL281969 33.8000 -34.0000 HU 80 1 16 37
1969302N38291 1969 108 NA NA NOT_NAMED 1969-11-05 21:00:00 TS 34.4072 -33.3866 main 1711 1675 P_____________ AL281969 34.4072 -33.3866 HU 80 1 16 42
1969302N38291 1969 108 NA NA NOT_NAMED 1969-11-06 00:00:00 TS 35.0000 -32.7000 80 hurdat_atl main 1675 1644 O_____________ hurdat_atl AL281969 35.0000 -32.7000 HU 80 1 17 44
1969302N38291 1969 108 NA NA NOT_NAMED 1969-11-06 03:00:00 TS 35.6067 -31.9937 main 1644 1610 P_____________ AL281969 35.6067 -31.9937 HU 80 1 17 45
1969302N38291 1969 108 NA NA NOT_NAMED 1969-11-06 06:00:00 TS 36.2000 -31.2000 80 hurdat_atl main 1610 1570 O_____________ hurdat_atl AL281969 36.2000 -31.2000 HU 80 1 18 50
1969302N38291 1969 108 NA NA NOT_NAMED 1969-11-06 09:00:00 TS 36.7727 -30.2649 main 1576 1536 P_____________ AL281969 36.7727 -30.2649 HU 77 1 19 54
1969302N38291 1969 108 NA NA NOT_NAMED 1969-11-06 12:00:00 TS 37.3000 -29.3000 75 hurdat_atl main 1535 1509 O_____________ hurdat_atl AL281969 37.3000 -29.3000 HU 75 1 18 55
1969302N38291 1969 108 NA NA NOT_NAMED 1969-11-06 15:00:00 TS 37.7947 -28.3972 main 1509 1487 P_____________ AL281969 37.7947 -28.3972 HU 72 1 16 56
1969302N38291 1969 108 NA NA NOT_NAMED 1969-11-06 18:00:00 TS 38.2000 -27.6000 70 hurdat_atl main 1488 1474 O_____________ hurdat_atl AL281969 38.2000 -27.6000 HU 70 1 13 58
1969302N38291 1969 108 NA NA NOT_NAMED 1969-11-06 21:00:00 TS 38.5015 -26.9613 main 1476 1458 P_____________ AL281969 38.5015 -26.9613 HU 65 1 11 62
1969302N38291 1969 108 NA NA NOT_NAMED 1969-11-07 00:00:00 TS 38.7000 -26.4000 60 hurdat_atl main 1458 1406 O_____________ hurdat_atl AL281969 38.7000 -26.4000 TS 60 0 10 69
1969302N38291 1969 108 NA NA NOT_NAMED 1969-11-07 03:00:00 TS 38.8444 -25.8148 main 1406 1354 P_____________ AL281969 38.8444 -25.8148 TS 55 0 10 78
1969302N38291 1969 108 NA NA NOT_NAMED 1969-11-07 06:00:00 TS 38.9000 -25.2000 50 hurdat_atl main 1354 1302 O_____________ hurdat_atl AL281969 38.9000 -25.2000 TS 50 0 10 87
1969302N38291 1969 108 NA NA NOT_NAMED 1969-11-07 09:00:00 TS 38.9017 -24.5456 main 1293 1234 P_____________ AL281969 38.9017 -24.5456 TS 47 0 11 95
1969302N38291 1969 108 NA NA NOT_NAMED 1969-11-07 12:00:00 ET 38.8000 -23.8000 45 hurdat_atl main 1234 1167 O_____________ hurdat_atl AL281969 38.8000 -23.8000 EX 45 -4 12 103
1969302N38291 1969 108 NA NA NOT_NAMED 1969-11-07 15:00:00 ET 38.6160 -22.9841 main 1167 1093 P_____________ AL281969 38.6160 -22.9841 EX 42 -4 15 110
1969302N38291 1969 108 NA NA NOT_NAMED 1969-11-07 18:00:00 ET 38.3000 -22.0000 40 hurdat_atl main 1084 987 O_____________ hurdat_atl AL281969 38.3000 -22.0000 EX 40 -4 19 113
1969302N38291 1969 108 NA NA NOT_NAMED 1969-11-07 21:00:00 ET 37.8612 -20.7642 main 987 894 P_____________ AL281969 37.8612 -20.7642 EX 37 -4 22 117
1969302N38291 1969 108 NA NA NOT_NAMED 1969-11-08 00:00:00 ET 37.3000 -19.5000 35 hurdat_atl main 888 822 O_____________ hurdat_atl AL281969 37.3000 -19.5000 EX 35 -4 22 124
1969302N38291 1969 108 NA NA NOT_NAMED 1969-11-08 03:00:00 ET 36.6407 -18.4630 main 826 772 P_____________ AL281969 36.6407 -18.4630 EX 35 -4 21 129
1969302N38291 1969 108 NA NA NOT_NAMED 1969-11-08 06:00:00 ET 36.0000 -17.5000 35 hurdat_atl main 765 691 O_____________ hurdat_atl AL281969 36.0000 -17.5000 EX 35 -4 20 125
1969302N38291 1969 108 NA NA NOT_NAMED 1969-11-08 09:00:00 ET 35.4976 -16.4635 main 691 620 P_____________ AL281969 35.4976 -16.4635 EX 32 -4 19 119
1969302N38291 1969 108 NA NA NOT_NAMED 1969-11-08 12:00:00 ET 35.1000 -15.5000 30 hurdat_atl main 620 569 O_____________ hurdat_atl AL281969 35.1000 -15.5000 EX 30 -4 16 118
1969302N38291 1969 108 NA NA NOT_NAMED 1969-11-08 15:00:00 ET 34.7680 -14.7519 main 569 488 P_____________ AL281969 34.7680 -14.7519 EX 27 -4 14 116
1969302N38291 1969 108 NA NA NOT_NAMED 1969-11-08 18:00:00 ET 34.5000 -14.0000 25 hurdat_atl main 488 405 O_____________ hurdat_atl AL281969 34.5000 -14.0000 EX 25 -4 15 110
1969302N38291 1969 108 NA NA NOT_NAMED 1969-11-08 21:00:00 ET 34.2503 -13.0606 main 405 309 P_____________ AL281969 34.2503 -13.0606 EX 22 -4 17 107
1969302N38291 1969 108 NA NA NOT_NAMED 1969-11-09 00:00:00 ET 34.0000 -12.0000 20 hurdat_atl main 301 O_____________ hurdat_atl AL281969 34.0000 -12.0000 EX 20 -4 18 106

About IBTrACS Database

This database is a web-friendly format of International Best Track Archive for Climate Stewardship (IBTrACS), a global best track data archive curated by NOAA dating back to 1842.

Updated: 2022-05-26